TFM - Tactical Decision Aid
ID: Runway Winds: CIG/VIS Threshold:

KJZI - Charleston/Executive, SC, US

Updated at: 1922 UTC 02 Oct 2022
Latest TAF at: 1720 UTC 02 Oct 2022

TAF Board

Time<<03/08Z 03/09Z 03/10Z 03/11Z 03/12Z 03/13Z 03/14Z 03/15Z 03/16Z 03/17Z 03/18Z 03/19Z 03/20Z>>
Type PRVL PRVL PRVL PRVL PRVL PRVL PRVL PRVL PRVL PRVL
VIS >6 >6 >6 >6 >6 >6 >6 >6 >6 >6
CIG 20 20 20 20 20 20 15 15 15 15
Cover BKN BKN BKN BKN BKN BKN BKN BKN BKN BKN
FltCat MVFR MVFR MVFR MVFR MVFR MVFR MVFR MVFR MVFR MVFR
WX -- -- -- -- -- -- -- -- -- --
WDir 360 360 360 360 360 360 360 360 360 360
WSpd 8 8 8 8 8 8 11 11 11 11
WGst -- -- -- -- -- -- 17 17 17 17
WSHgt -- -- -- -- -- -- -- -- -- --
WSDir -- -- -- -- -- -- -- -- -- --
WSSpd -- -- -- -- -- -- -- -- -- --

TDA Impact Legend

  None Marginal Slight Moderate High
Visibility (sm) >5 3≤X≤5 2≤X<3 0.75≤X<2 <0.75
Ceiling (100 ft) >30 10≤X≤30 6≤X<10 3≤X<6 <3
Wind Speed (kt) <15 15≤X<25 25≤X<30 ≥30
Wind Gust (kt) <15 15≤X<25 25≤X<35 ≥35
Weather No Wx Reported VCTS -TS,-FZRA TS,FZRA +TS,+FZRA
TAF
KJZI 021720Z 0218/0318 36007KT P6SM FEW025 BKN060
  FM030000 36006KT P6SM BKN060
  FM030700 36008KT P6SM BKN020
  FM031400 36011G17KT P6SM BKN015


Radar Display
Forecast Discussion